Main page
METAR-TAF:

METAR-TAF

Airports :

Zahedan, Iran

Zahedan Airport

latitude: 29-28N, longitude: 060-53E, elevation: 1370 m

Current weather observation

The report was made 22 minutes ago, at 04:30 UTC
Calm wind
Temperature 18°C
Humidity 18%
Pressure 1018 hPa
Visibility 10 km or more
no clouds below 1500 m and no cumulonimbus

METAR: OIZH 220430Z 00000KT CAVOK 18/M07 Q1018 A3007

Time: 08:22 (04:52 UTC)

Forecast

The report was made 5 hours and 52 minutes ago, at 23:00 UTC
Forecast valid from 22 at 00 UTC to 23 at 06 UTC
Wind 8 kt from the South/Southwest
Visibility 10 km or more
Temporary
from 22 at 09 UTC to 22 at 15 UTC
Wind 10 kt from the North/Northeast

TAF: OIZH 212300Z 2200/2306 21004MPS 9999 NSC TEMPO 2209/2215 02005MPS

Weather observations and forecasts of more than 4000 airports (METAR and TAF reports).

The available stations are represented by yellow and red dots on the map.

Hover mouse over dot to see the name of the station.

Then click to see weather observations and forecasts.

To change the map : click on the green buttons with a black cross to zoom in, on the green button with a dash to zoom out, or on the green arrows for adjacent maps.


METAR-TAF: